KHDN/HDN METAR and TAF weather

Enter ICAO airport designator
Station Type Date Time Source
KHDN METAR 2021/10/22 18:56 UTC NOAA

KHDN 221856Z AUTO 00000KT 10SM CLR 16/M07 A3016 RMK AO2 SLP175 T01611072


Station Type Date Time Source
KHDN Decoded METAR 2021/10/22 18:56 UTC NOAA

Hayden, Yampa Valley Airport, CO, United States (KHDN) 40-29N 107-13W
Oct 22, 2021 - 02:56 PM EDT / 2021.10.22 1856 UTC
Wind: Calm:0
Visibility: 10 mile(s):0
Sky conditions: clear
Temperature: 61.0 F (16.1 C)
Dew Point: 19.0 F (-7.2 C)
Relative Humidity: 19%
Pressure (altimeter): 30.16 in. Hg (1021 hPa)
ob: KHDN 221856Z AUTO 00000KT 10SM CLR 16/M07 A3016 RMK AO2 SLP175 T01611072
cycle: 19

Station Type Date Time Source
KHDN TAF 2021/10/22 18:24 UTC NOAA

TAF KHDN 221721Z 2218/2318 11008KT P6SM SKC
FM222000 28010KT P6SM SCT250
FM230200 12006KT P6SM SCT250
FM231200 11008KT P6SM BKN250

Example: see airport list